createdAt,value
2023-04-18T10:51:46.655Z,13567.3076
2023-04-18T10:52:48.288Z,13937.6152
2023-04-18T10:53:50.727Z,14021.9229
2023-04-18T10:54:51.564Z,14097.3076
2023-04-18T10:55:54.217Z,14142.3848
2023-04-18T10:56:54.841Z,14173.9229
2023-04-18T10:57:57.577Z,14158.0000
2023-04-18T10:58:58.199Z,14129.8457
2023-04-18T10:59:59.769Z,14114.6152
2023-04-18T11:01:01.646Z,14106.7695
2023-04-18T11:02:03.162Z,14123.0771
2023-04-18T11:03:05.613Z,14122.3848
2023-04-18T11:04:06.405Z,14106.8457
2023-04-18T11:05:08.049Z,14122.0771
2023-04-18T11:06:09.664Z,14089.2305
2023-04-18T11:07:11.407Z,14082.9229
2023-04-18T11:08:13.050Z,14076.9229
2023-04-18T11:09:14.642Z,14081.8457
2023-04-18T11:10:16.202Z,14060.6152
2023-04-18T11:11:17.920Z,14062.8457
2023-04-18T11:12:19.858Z,14066.3076
2023-04-18T11:13:21.857Z,14080.4619
2023-04-18T11:14:22.912Z,14101.3076
2023-04-18T11:15:24.583Z,14139.3076
2023-04-18T11:16:26.300Z,14185.9229
2023-04-18T11:17:27.927Z,14186.6152
2023-04-18T11:18:29.581Z,14155.4619
2023-04-18T11:19:31.206Z,14158.2305
2023-04-18T11:20:32.838Z,14109.7695
2023-04-18T11:21:34.454Z,14119.6924
2023-04-18T11:22:36.831Z,14107.0000
2023-04-18T11:23:37.742Z,14129.6924
2023-04-18T11:24:39.456Z,14103.1543
2023-04-18T11:25:41.003Z,14089.4619
2023-04-18T11:26:42.792Z,14084.1543
2023-04-18T11:27:44.408Z,14123.9229
2023-04-18T11:28:46.035Z,14116.0771
2023-04-18T11:29:47.698Z,14168.9229
2023-04-18T11:30:49.374Z,14196.2305
2023-04-18T11:31:51.038Z,14183.7695
2023-04-18T11:32:52.708Z,14119.3076
2023-04-18T11:33:54.192Z,14125.2305
2023-04-18T11:34:56.775Z,14109.8457
2023-04-18T11:35:57.539Z,14122.6924
2023-04-18T11:36:59.189Z,14080.8457
2023-04-18T11:38:00.871Z,14081.4619
2023-04-18T11:39:02.582Z,14099.0771
2023-04-18T11:40:04.206Z,14113.3076
2023-04-18T11:41:05.785Z,14068.2305
2023-04-18T11:42:07.499Z,14083.1543
2023-04-18T11:43:09.166Z,14092.1543
2023-04-18T11:44:10.776Z,14120.9229
2023-04-18T11:45:12.374Z,14172.3848
2023-04-18T11:46:14.098Z,14185.6924
2023-04-18T11:47:15.665Z,14151.9229
2023-04-18T11:48:17.448Z,14153.1543
2023-04-18T11:49:19.012Z,14189.5381
2023-04-18T11:50:20.634Z,14145.1543
2023-04-18T11:51:22.367Z,14123.8457
2023-04-18T11:52:23.909Z,14069.9229
2023-04-18T11:53:25.620Z,14084.8457
2023-04-18T11:54:27.241Z,14051.5381
2023-04-18T11:55:28.876Z,14087.6152
2023-04-18T11:56:30.499Z,14082.8457
2023-04-18T11:57:32.131Z,14058.8457
2023-04-18T11:58:33.773Z,14050.3076
2023-04-18T11:59:35.494Z,14029.0771
2023-04-18T12:00:37.054Z,14054.6924
2023-04-18T12:01:38.724Z,14215.0771
2023-04-18T12:02:40.494Z,14132.6152
2023-04-18T12:03:42.260Z,14146.6924
2023-04-18T12:04:44.165Z,14127.2305
2023-04-18T12:05:45.594Z,14202.2305
2023-04-18T12:06:47.018Z,14153.3848
2023-04-18T12:07:48.603Z,14138.0000
2023-04-18T12:08:51.207Z,14101.6924
2023-04-18T12:09:51.936Z,14059.8457
2023-04-18T12:10:54.259Z,14062.0000
2023-04-18T12:11:55.204Z,14073.0771
2023-04-18T12:12:56.818Z,14073.0771
2023-04-18T12:13:58.444Z,14034.5381
2023-04-18T12:15:00.292Z,14062.3848
2023-04-18T12:16:01.805Z,14121.1543
2023-04-18T12:17:03.310Z,14154.3848
2023-04-18T12:18:05.810Z,14140.7695
2023-04-18T12:19:06.627Z,14131.7695
2023-04-18T12:20:08.322Z,14125.8457
2023-04-18T12:21:09.933Z,14113.2305
2023-04-18T12:22:12.221Z,14081.6924
2023-04-18T12:23:13.450Z,14046.5381
2023-04-18T12:24:16.626Z,14052.6924
2023-04-18T12:25:16.605Z,14031.0771
2023-04-18T12:26:18.191Z,14045.7695
2023-04-18T12:27:19.858Z,14010.6924
2023-04-18T12:28:21.487Z,14059.8457
2023-04-18T12:29:23.153Z,14081.6152
2023-04-18T12:30:24.846Z,14077.0771
2023-04-18T12:31:26.457Z,14063.0000
2023-04-18T12:32:28.068Z,14120.3076
2023-04-18T12:33:29.729Z,14136.0000
2023-04-18T12:34:31.310Z,14097.3076
2023-04-18T12:35:33.394Z,14063.4619
2023-04-18T12:36:34.636Z,14047.0000
2023-04-18T12:37:36.270Z,14030.3076
2023-04-18T12:38:37.914Z,14033.1543
2023-04-18T12:39:39.590Z,14061.6152
2023-04-18T12:40:41.252Z,14104.7695
2023-04-18T12:41:42.871Z,14076.3848
2023-04-18T12:42:44.494Z,14077.9229
2023-04-18T12:43:46.158Z,14123.6152
2023-04-18T12:44:48.044Z,14131.0000
2023-04-18T12:45:49.460Z,14083.3848
2023-04-18T12:46:51.210Z,14066.3076
2023-04-18T12:47:52.818Z,14079.5381
2023-04-18T12:48:54.363Z,14056.3076
2023-04-18T12:49:55.974Z,14029.2305
2023-04-18T12:50:57.731Z,14022.1543
2023-04-18T12:51:59.274Z,14016.1543
2023-04-18T12:53:00.882Z,14027.5381
2023-04-18T12:54:02.606Z,14159.2305
2023-04-18T12:55:04.204Z,14157.1543
2023-04-18T12:56:05.944Z,14119.9229
2023-04-18T12:57:07.482Z,14183.0000
2023-04-18T12:58:09.197Z,14157.3848
2023-04-18T12:59:10.780Z,14100.5381
2023-04-18T13:00:12.456Z,14073.0000
2023-04-18T13:01:14.247Z,14054.6924
2023-04-18T13:02:15.850Z,14051.3076
2023-04-18T13:03:17.400Z,14024.3848
2023-04-18T13:04:19.236Z,13971.6152
2023-04-18T13:05:21.388Z,13948.0771
2023-04-18T13:06:22.410Z,13979.1543
2023-04-18T13:07:23.927Z,14046.7695
2023-04-18T13:08:25.605Z,14066.2305
2023-04-18T13:09:27.213Z,14036.0771
2023-04-18T13:10:28.891Z,14089.8457
2023-04-18T13:11:30.870Z,14137.1543
2023-04-18T13:12:32.178Z,14143.0771
2023-04-18T13:13:35.604Z,14169.6152
2023-04-18T13:14:35.488Z,14063.0771
2023-04-18T13:15:37.097Z,14040.2305
2023-04-18T13:16:39.762Z,14040.1543
2023-04-18T13:17:40.485Z,14013.5381
2023-04-18T13:18:42.066Z,14013.6924
2023-04-18T13:19:43.716Z,14009.4619
2023-04-18T13:20:45.410Z,14034.9229
2023-04-18T13:21:49.126Z,14123.2305
2023-04-18T13:22:48.775Z,14152.0771
2023-04-18T13:23:50.328Z,14210.9229
2023-04-18T13:24:51.924Z,14163.9229
2023-04-18T13:25:53.597Z,14064.6152
2023-04-18T13:26:55.241Z,14067.5381
2023-04-18T13:27:57.465Z,14076.9229
2023-04-18T13:28:58.524Z,14048.3076
2023-04-18T13:30:00.205Z,14123.0000
2023-04-18T13:31:01.801Z,14164.9229
2023-04-18T13:32:03.593Z,14154.4619
2023-04-18T13:33:05.224Z,14058.9229
2023-04-18T13:34:06.830Z,14053.0000
2023-04-18T13:35:08.424Z,14068.8457
2023-04-18T13:36:10.124Z,14155.7695
2023-04-18T13:37:11.773Z,14222.3848
2023-04-18T13:38:13.415Z,14172.3076
2023-04-18T13:39:15.126Z,14107.1543
2023-04-18T13:40:16.687Z,14092.2305
2023-04-18T13:41:18.291Z,14033.6924
2023-04-18T13:42:20.005Z,14037.0000
2023-04-18T13:43:21.652Z,14029.1543
2023-04-18T13:44:23.271Z,14041.5381
2023-04-18T13:45:24.842Z,14104.3848
2023-04-18T13:46:26.631Z,14089.0000
2023-04-18T13:47:28.395Z,14058.5381
2023-04-18T13:48:29.892Z,14118.3076
2023-04-18T13:49:31.492Z,14146.7695
2023-04-18T13:50:33.166Z,14132.4619
2023-04-18T13:51:34.818Z,14149.8457
2023-04-18T13:52:36.503Z,14081.6924
2023-04-18T13:53:38.108Z,14075.5381
2023-04-18T13:54:39.722Z,14096.0771
2023-04-18T13:55:41.372Z,14145.8457
2023-04-18T13:56:43.044Z,14248.1543
2023-04-18T13:57:44.709Z,14270.9229
2023-04-18T13:58:46.455Z,14275.6152
2023-04-18T13:59:47.961Z,14114.7695
2023-04-18T14:00:49.578Z,14153.2305
2023-04-18T14:01:51.260Z,14115.0771
2023-04-18T14:02:53.576Z,14101.4619
2023-04-18T14:03:54.761Z,14101.8457
2023-04-18T14:04:56.282Z,14094.4619
2023-04-18T14:05:57.856Z,14056.6924
2023-04-18T14:06:59.473Z,14096.4619
2023-04-18T14:08:01.160Z,14092.5381
2023-04-18T14:09:03.758Z,14076.9229
2023-04-18T14:10:05.377Z,14113.0771
2023-04-18T14:11:06.103Z,14128.1543
2023-04-18T14:12:07.889Z,14196.3848
2023-04-18T14:13:09.380Z,14162.6924
2023-04-18T14:14:11.100Z,14127.4619
2023-04-18T14:15:12.740Z,14108.3848
2023-04-18T14:16:14.351Z,14107.6152
2023-04-18T14:17:15.950Z,14111.7695
2023-04-18T14:18:17.640Z,14138.1543
2023-04-18T14:19:19.319Z,14108.0000
2023-04-18T14:20:21.437Z,14083.5381
2023-04-18T14:21:22.494Z,14106.3848
2023-04-18T14:22:24.213Z,14204.0000
2023-04-18T14:23:25.910Z,14267.7695
2023-04-18T14:24:27.521Z,14306.8457
2023-04-18T14:25:29.171Z,14209.3848
2023-04-18T14:26:30.843Z,14170.0771
2023-04-18T14:27:32.421Z,14142.7695
2023-04-18T14:28:34.134Z,14145.4619
2023-04-18T14:29:36.364Z,14135.5381
2023-04-18T14:30:37.456Z,14164.3848
2023-04-18T14:31:39.104Z,14213.0771
2023-04-18T14:32:40.806Z,14234.1543
2023-04-18T14:33:42.317Z,14178.0000
2023-04-18T14:34:44.087Z,14096.4619
2023-04-18T14:35:45.707Z,14105.2305
2023-04-18T14:36:47.278Z,14094.3076
2023-04-18T14:37:48.924Z,14093.3076
2023-04-18T14:38:50.646Z,14058.6924
2023-04-18T14:39:52.300Z,14050.4619
2023-04-18T14:40:54.010Z,14043.4619
2023-04-18T14:41:55.504Z,14025.0771
2023-04-18T14:42:57.204Z,14019.8457
2023-04-18T14:43:58.801Z,14044.9229
2023-04-18T14:45:00.552Z,14075.4619
2023-04-18T14:46:02.174Z,14063.0771
2023-04-18T14:47:03.873Z,14035.2305
2023-04-18T14:48:06.333Z,14035.5381
2023-04-18T14:49:07.061Z,14051.0771
2023-04-18T14:50:08.812Z,14044.9229
2023-04-18T14:51:10.416Z,14035.5381
2023-04-18T14:52:12.068Z,14049.1543
2023-04-18T14:53:13.656Z,14050.0000
2023-04-18T14:54:15.356Z,14140.1543
2023-04-18T14:55:16.991Z,14071.7695
2023-04-18T14:56:18.739Z,14160.3076
2023-04-18T14:57:20.240Z,14075.9229
2023-04-18T14:58:21.920Z,14089.5381
2023-04-18T14:59:23.535Z,14154.7695
2023-04-18T15:00:25.205Z,14067.0771
2023-04-18T15:01:26.921Z,14149.6152
2023-04-18T15:02:28.578Z,14119.3848
2023-04-18T15:03:31.043Z,14115.1543
2023-04-18T15:04:31.906Z,14095.3076
2023-04-18T15:05:33.501Z,14096.0771
2023-04-18T15:06:35.527Z,14090.4619
2023-04-18T15:07:36.737Z,14089.3848
2023-04-18T15:08:38.388Z,14067.0000
2023-04-18T15:09:40.109Z,14102.6924
2023-04-18T15:10:41.720Z,14164.7695
2023-04-18T15:11:43.610Z,14062.0000
2023-04-18T15:12:44.963Z,14077.0000
2023-04-18T15:13:46.681Z,14099.3076
2023-04-18T15:14:48.248Z,14123.8457
2023-04-18T15:15:50.482Z,14115.0000
2023-04-18T15:16:51.687Z,14073.2305
2023-04-18T15:17:53.314Z,14021.2305
2023-04-18T15:18:54.898Z,14030.4619
2023-04-18T15:19:56.495Z,14047.1543
2023-04-18T15:20:58.214Z,14093.6152
2023-04-18T15:22:00.556Z,14060.5381
2023-04-18T15:23:01.493Z,14085.5381
2023-04-18T15:24:03.099Z,14075.4619
2023-04-18T15:25:04.821Z,14074.9229
2023-04-18T15:26:06.485Z,14078.6152
2023-04-18T15:27:08.116Z,14075.4619
2023-04-18T15:28:09.713Z,14096.3076
2023-04-18T15:29:11.385Z,14118.2305
2023-04-18T15:30:13.061Z,14088.3076
2023-04-18T15:31:14.774Z,14052.8457
2023-04-18T15:32:16.446Z,14006.3848
2023-04-18T15:33:17.998Z,14144.0771
2023-04-18T15:34:19.675Z,14192.5381
2023-04-18T15:35:21.900Z,14174.0000
2023-04-18T15:36:23.037Z,14111.9229
2023-04-18T15:37:24.659Z,14035.4619
2023-04-18T15:38:26.228Z,14050.4619
2023-04-18T15:39:27.831Z,14111.6152
2023-04-18T15:40:29.578Z,14109.2305
2023-04-18T15:41:31.220Z,14104.6152
2023-04-18T15:42:32.966Z,14090.3848
2023-04-18T15:43:34.528Z,14085.0000
2023-04-18T15:44:36.176Z,14049.1543
2023-04-18T15:45:37.858Z,14040.3848
2023-04-18T15:46:41.410Z,14034.5381
2023-04-18T15:47:42.101Z,14043.1543
2023-04-18T15:48:42.776Z,14020.5381
2023-04-18T15:49:44.473Z,14059.8457
2023-04-18T15:50:46.041Z,14058.8457
2023-04-18T15:51:47.798Z,14022.5381
2023-04-18T15:52:49.411Z,14002.4619
2023-04-18T15:53:51.008Z,14036.5381
2023-04-18T15:54:52.604Z,14022.8457
2023-04-18T15:55:54.363Z,14025.6924
2023-04-18T15:56:55.925Z,14025.6924
2023-04-18T15:57:57.583Z,14003.9229
2023-04-18T15:58:59.266Z,13964.5381
2023-04-18T16:00:00.941Z,14080.3848
2023-04-18T16:01:02.562Z,14039.0771
2023-04-18T16:02:05.081Z,14085.8457
2023-04-18T16:03:05.957Z,14029.0000
2023-04-18T16:04:07.619Z,14018.0000
2023-04-18T16:05:09.908Z,14014.0000
2023-04-18T16:06:10.778Z,14023.0771
2023-04-18T16:07:12.444Z,14010.3848
2023-04-18T16:08:14.066Z,13985.3076
2023-04-18T16:09:15.709Z,13990.6924
2023-04-18T16:10:17.347Z,13997.0000
2023-04-18T16:11:18.970Z,14014.4619
2023-04-18T16:12:20.748Z,14038.7695
2023-04-18T16:13:22.284Z,14047.6152
2023-04-18T16:14:23.947Z,14036.6152
2023-04-18T16:15:25.528Z,14000.2305
2023-04-18T16:16:27.211Z,14016.3848
2023-04-18T16:17:28.997Z,14017.8457
2023-04-18T16:18:30.534Z,14026.3076
2023-04-18T16:19:32.943Z,13997.4619
2023-04-18T16:20:33.833Z,14010.7695
2023-04-18T16:21:35.416Z,13994.9229
2023-04-18T16:22:37.104Z,14015.0000
2023-04-18T16:23:38.712Z,14014.3848
2023-04-18T16:24:42.011Z,13987.0000
2023-04-18T16:25:41.998Z,13960.8457
2023-04-18T16:26:43.596Z,13957.6152
2023-04-18T16:27:45.298Z,14038.6152
2023-04-18T16:28:46.874Z,14042.7695
2023-04-18T16:29:48.502Z,14059.0000
2023-04-18T16:30:50.181Z,14053.2305
2023-04-18T16:31:52.067Z,14041.9229
2023-04-18T16:32:54.159Z,14046.0000
2023-04-18T16:33:55.345Z,14008.9229
2023-04-18T16:34:57.885Z,13995.3076
2023-04-18T16:35:58.509Z,13981.0000
2023-04-18T16:37:01.177Z,13991.2305
2023-04-18T16:38:03.664Z,14005.3076
2023-04-18T16:39:08.189Z,13994.2861
2023-04-18T16:40:09.878Z,13995.1543
2023-04-18T16:41:11.561Z,13991.7695
2023-04-18T16:42:15.653Z,13998.1543
2023-04-18T16:43:14.776Z,14009.2305
2023-04-18T16:44:16.452Z,14006.0771
2023-04-18T16:45:17.962Z,14012.0000
2023-04-18T16:46:19.723Z,14021.3848
2023-04-18T16:47:21.277Z,14033.0000
2023-04-18T16:48:22.983Z,14022.3076
2023-04-18T16:49:24.590Z,14013.3076
2023-04-18T16:50:26.273Z,13978.0000
2023-04-18T16:51:27.885Z,14024.4619
2023-04-18T16:52:29.543Z,14051.3848
2023-04-18T16:53:31.518Z,14039.3848
2023-04-18T16:54:32.836Z,14018.1543
2023-04-18T16:55:34.470Z,13973.8457
2023-04-18T16:56:36.160Z,13979.2305
2023-04-18T16:57:37.834Z,14005.3076
2023-04-18T16:58:39.380Z,14027.8457
2023-04-18T16:59:40.997Z,14132.1543
2023-04-18T17:00:42.653Z,14057.5381
2023-04-18T17:01:44.329Z,14089.0771
2023-04-18T17:02:46.007Z,14042.8457
2023-04-18T17:03:47.704Z,14059.7695
2023-04-18T17:04:49.307Z,14085.8457
2023-04-18T17:05:50.817Z,14098.7695
2023-04-18T17:06:52.552Z,14074.5381
2023-04-18T17:07:54.107Z,14097.6924
2023-04-18T17:08:55.960Z,14090.0771
2023-04-18T17:09:57.484Z,14050.1543
2023-04-18T17:10:59.191Z,14093.5381
2023-04-18T17:12:00.785Z,14022.0771
2023-04-18T17:13:02.694Z,14054.0000
2023-04-18T17:14:04.145Z,14051.1543
2023-04-18T17:15:06.026Z,14030.2305
2023-04-18T17:16:07.429Z,14015.3076
2023-04-18T17:17:09.051Z,14053.3076
2023-04-18T17:18:10.796Z,14056.4619
2023-04-18T17:19:12.526Z,14032.6924
2023-04-18T17:20:14.983Z,14011.6152
2023-04-18T17:21:15.663Z,14052.4619
2023-04-18T17:22:17.277Z,14038.5381
2023-04-18T17:23:18.977Z,14067.0771
2023-04-18T17:24:20.648Z,14069.3848
2023-04-18T17:25:22.481Z,14061.4619
2023-04-18T17:26:23.917Z,14074.6152
2023-04-18T17:27:25.571Z,14099.0000
2023-04-18T17:28:27.217Z,14081.2305
2023-04-18T17:29:28.879Z,14064.3076
2023-04-18T17:30:30.970Z,14051.0771
2023-04-18T17:31:32.262Z,14082.1543
2023-04-18T17:32:33.908Z,14063.6924
2023-04-18T17:33:36.406Z,14057.6924
2023-04-18T17:34:37.165Z,14095.6924
2023-04-18T17:35:38.797Z,14113.6924
2023-04-18T17:36:40.416Z,14109.3848
2023-04-18T17:37:42.106Z,14123.8457
2023-04-18T17:38:43.764Z,14115.6152
2023-04-18T17:39:45.341Z,14113.6152
2023-04-18T17:40:47.486Z,14102.5381
2023-04-18T17:41:48.573Z,14122.7695
2023-04-18T17:42:50.327Z,14082.9229
2023-04-18T17:43:51.946Z,14043.6152
2023-04-18T17:44:53.651Z,14046.5381
2023-04-18T17:45:55.318Z,14065.0000
2023-04-18T17:46:56.978Z,14033.4619
2023-04-18T17:47:58.793Z,14043.6152
2023-04-18T17:49:00.553Z,14105.4619
2023-04-18T17:50:02.024Z,14100.7695
2023-04-18T17:51:03.685Z,14086.7695
2023-04-18T17:52:05.645Z,14071.1543
2023-04-18T17:53:06.936Z,14051.4619
2023-04-18T17:54:08.686Z,14039.4619
2023-04-18T17:55:10.358Z,14043.7695
2023-04-18T17:56:12.102Z,14050.3076
2023-04-18T17:57:13.513Z,14061.1543
2023-04-18T17:58:15.291Z,14067.0771
2023-04-18T17:59:16.970Z,14051.6152
2023-04-18T18:00:18.534Z,14059.0000
2023-04-18T18:01:20.182Z,14050.7695
2023-04-18T18:02:23.243Z,14049.1543
2023-04-18T18:03:23.417Z,14055.5381
2023-04-18T18:04:28.180Z,14056.3848
2023-04-18T18:05:26.684Z,14056.8457
2023-04-18T18:06:28.367Z,14062.6152
2023-04-18T18:07:29.977Z,14051.7695
2023-04-18T18:08:31.618Z,14076.6152
2023-04-18T18:09:33.198Z,14066.0771
2023-04-18T18:10:34.954Z,14074.2305
2023-04-18T18:11:36.658Z,14073.9229
2023-04-18T18:12:38.204Z,14066.3848
2023-04-18T18:13:39.782Z,14077.3076
2023-04-18T18:14:41.505Z,14070.2305
2023-04-18T18:15:43.216Z,14072.7695
2023-04-18T18:16:44.866Z,14073.6924
2023-04-18T18:17:46.494Z,14069.7695
2023-04-18T18:18:48.074Z,14067.9229
2023-04-18T18:19:49.734Z,14077.6152
2023-04-18T18:20:51.370Z,14077.7695
2023-04-18T18:21:53.089Z,14087.4619
2023-04-18T18:22:54.662Z,14083.1543
2023-04-18T18:23:56.324Z,14090.0771
2023-04-18T18:24:57.969Z,14096.4619
2023-04-18T18:25:59.660Z,14095.6924
2023-04-18T18:27:01.279Z,14095.5381
2023-04-18T18:28:02.903Z,14105.8457
2023-04-18T18:29:04.511Z,14098.8457
2023-04-18T18:30:06.211Z,14099.3076
2023-04-18T18:31:07.908Z,14101.3848
2023-04-18T18:32:09.523Z,14108.6924
2023-04-18T18:33:11.983Z,14110.7695
2023-04-18T18:34:12.771Z,14116.7695
2023-04-18T18:35:14.462Z,14103.6152
2023-04-18T18:36:16.142Z,14093.0771
2023-04-18T18:37:17.704Z,14099.3076
2023-04-18T18:38:19.359Z,14115.7695
2023-04-18T18:39:21.094Z,14117.0771
2023-04-18T18:40:22.682Z,14108.0771
2023-04-18T18:41:24.646Z,14110.3848
2023-04-18T18:42:25.968Z,14116.3848
2023-04-18T18:43:27.593Z,14119.2305
2023-04-18T18:44:29.204Z,14112.6152
2023-04-18T18:45:30.887Z,14111.0000
2023-04-18T18:46:32.685Z,14122.0000
2023-04-18T18:47:34.922Z,14113.9229
2023-04-18T18:48:35.816Z,14118.2305
2023-04-18T18:49:37.483Z,14115.7695
2023-04-18T18:50:39.133Z,14112.0000
2023-04-18T18:51:40.853Z,14121.7695
2023-04-18T18:52:42.435Z,14119.8457
2023-04-18T18:53:45.160Z,14120.6152
2023-04-18T18:54:45.716Z,14109.9229
2023-04-18T18:55:47.290Z,14118.5381
2023-04-18T18:56:49.024Z,14129.2305
2023-04-18T18:57:50.694Z,14110.3076
2023-04-18T18:58:52.439Z,14111.3848
2023-04-18T18:59:55.721Z,14120.9229
2023-04-18T19:00:55.575Z,14126.7695
2023-04-18T19:01:57.292Z,14132.6924
2023-04-18T19:02:59.713Z,14132.9229
2023-04-18T19:04:00.710Z,14141.1543
2023-04-18T19:05:02.317Z,14120.0771
2023-04-18T19:06:03.728Z,14130.2305
2023-04-18T19:07:05.449Z,14133.6152
2023-04-18T19:08:07.197Z,14141.0000
2023-04-18T19:09:08.757Z,14132.3076
2023-04-18T19:10:10.370Z,14145.3076
2023-04-18T19:11:12.016Z,14139.6152
2023-04-18T19:12:13.738Z,14140.2305
2023-04-18T19:13:15.397Z,14134.0000
2023-04-18T19:14:17.019Z,14138.1543
2023-04-18T19:15:18.567Z,14144.9229
2023-04-18T19:16:20.347Z,14144.5381
2023-04-18T19:17:22.037Z,14136.4619
2023-04-18T19:18:23.631Z,14145.2305
2023-04-18T19:19:25.136Z,14135.3848
2023-04-18T19:20:28.721Z,14157.6152
2023-04-18T19:21:28.513Z,14153.0771
2023-04-18T19:22:30.230Z,14144.9229
2023-04-18T19:23:32.096Z,14157.5381
2023-04-18T19:24:33.448Z,14153.6924
2023-04-18T19:25:35.048Z,14154.7695
2023-04-18T19:26:36.727Z,14153.6152
2023-04-18T19:27:38.414Z,14155.2305
2023-04-18T19:28:40.156Z,14169.1543
2023-04-18T19:29:41.679Z,14167.3848
2023-04-18T19:30:43.314Z,14163.3076
2023-04-18T19:31:44.942Z,14155.3848
2023-04-18T19:32:46.695Z,14160.8457
2023-04-18T19:33:48.327Z,14163.6924
2023-04-18T19:34:49.905Z,14165.5381
2023-04-18T19:35:51.610Z,14169.7695
2023-04-18T19:36:53.237Z,14156.3848
2023-04-18T19:37:54.911Z,14168.1543
2023-04-18T19:38:56.611Z,14163.0000
2023-04-18T19:39:58.216Z,14156.6924
2023-04-18T19:40:59.803Z,14182.2305
2023-04-18T19:42:01.400Z,14167.6152
2023-04-18T19:43:03.619Z,14165.6924
2023-04-18T19:44:04.773Z,14170.6924
2023-04-18T19:45:06.432Z,14168.3076
2023-04-18T19:46:08.199Z,14175.9229
2023-04-18T19:47:09.717Z,14164.7695
2023-04-18T19:48:11.404Z,14172.3076
2023-04-18T19:49:13.308Z,14172.4619
2023-04-18T19:50:14.723Z,14172.3076
2023-04-18T19:51:16.272Z,14170.6152
2023-04-18T19:52:18.007Z,14168.3848
2023-04-18T19:53:20.301Z,14176.3848
2023-04-18T19:54:21.972Z,14176.5381
2023-04-18T19:55:23.024Z,14172.9229
2023-04-18T19:56:24.532Z,14171.7695
2023-04-18T19:57:26.256Z,14178.2305
2023-04-18T19:58:27.819Z,14189.2305
2023-04-18T19:59:29.515Z,14184.3848
2023-04-18T20:00:31.134Z,14195.8457
2023-04-18T20:01:32.854Z,14186.8457
2023-04-18T20:02:34.640Z,14189.7695
2023-04-18T20:03:36.276Z,14182.1543
2023-04-18T20:04:37.985Z,14181.8457
2023-04-18T20:05:39.409Z,14202.1543
2023-04-18T20:06:41.009Z,14195.2305
2023-04-18T20:07:42.676Z,14202.2305
2023-04-18T20:08:44.326Z,14193.3076
2023-04-18T20:09:45.957Z,14204.3076
2023-04-18T20:10:47.601Z,14186.3848
2023-04-18T20:11:49.261Z,14195.7695
2023-04-18T20:12:50.843Z,14194.6924
2023-04-18T20:13:52.598Z,14188.9229
2023-04-18T20:14:54.175Z,14186.1543
2023-04-18T20:15:55.834Z,14197.3076
2023-04-18T20:16:57.568Z,14196.4619
2023-04-18T20:17:59.256Z,14196.3076
2023-04-18T20:19:00.803Z,14191.3076
2023-04-18T20:20:02.380Z,14197.4619
2023-04-18T20:21:04.087Z,14199.3076
2023-04-18T20:22:05.697Z,14199.6152
2023-04-18T20:23:07.309Z,14202.3076
2023-04-18T20:24:09.026Z,14207.3076
2023-04-18T20:25:10.653Z,14204.7695
2023-04-18T20:26:13.094Z,14199.4619
2023-04-18T20:27:13.890Z,14212.3076
2023-04-18T20:28:15.581Z,14193.0000
2023-04-18T20:29:17.285Z,14206.8457
2023-04-18T20:30:18.856Z,14206.5381
2023-04-18T20:31:20.574Z,14211.5381
2023-04-18T20:32:22.139Z,14224.7695
2023-04-18T20:33:23.825Z,14212.0000
2023-04-18T20:34:25.506Z,14219.1543
2023-04-18T20:35:27.163Z,14210.3076
2023-04-18T20:36:28.777Z,14219.8457
2023-04-18T20:37:30.445Z,14232.8457
2023-04-18T20:38:32.092Z,14226.6924
2023-04-18T20:39:33.776Z,14228.6924
2023-04-18T20:40:35.354Z,14222.6924
2023-04-18T20:41:37.022Z,14224.8457
2023-04-18T20:42:38.637Z,14223.7695
2023-04-18T20:43:40.370Z,14219.5381
2023-04-18T20:44:42.074Z,14225.0771
2023-04-18T20:45:43.650Z,14219.9229
2023-04-18T20:46:45.274Z,14220.2305
2023-04-18T20:47:46.957Z,14219.6924
2023-04-18T20:48:48.510Z,14219.6152
2023-04-18T20:49:50.165Z,14221.5381
2023-04-18T20:50:51.947Z,14221.2305
2023-04-18T20:51:53.424Z,14222.3848
2023-04-18T20:52:55.162Z,14233.8457
2023-04-18T20:53:56.716Z,14224.8457
2023-04-18T20:54:58.477Z,14236.6152
2023-04-18T20:56:00.086Z,14230.7695
2023-04-18T20:57:01.719Z,14229.9229
2023-04-18T20:58:03.335Z,14229.6924
2023-04-18T20:59:05.068Z,14230.0771
2023-04-18T21:00:06.685Z,14218.8457
2023-04-18T21:01:08.356Z,14221.2305
2023-04-18T21:02:10.089Z,14231.6924
2023-04-18T21:03:11.750Z,14223.3076
2023-04-18T21:04:13.680Z,14245.2305
2023-04-18T21:05:14.971Z,14256.3076
2023-04-18T21:06:16.506Z,14272.4619
2023-04-18T21:07:18.199Z,14281.3076
2023-04-18T21:08:19.820Z,14258.6924
2023-04-18T21:09:21.488Z,14246.9229
2023-04-18T21:10:23.161Z,14242.6924
2023-04-18T21:11:24.790Z,14228.3848
2023-04-18T21:12:26.351Z,14229.5381
2023-04-18T21:13:28.083Z,14229.8457
2023-04-18T21:14:29.681Z,14232.3076
2023-04-18T21:15:31.401Z,14226.6152
2023-04-18T21:16:33.141Z,14233.9229
2023-04-18T21:17:34.692Z,14232.8457
2023-04-18T21:18:36.541Z,14261.9229
2023-04-18T21:19:37.977Z,14289.9229
2023-04-18T21:20:39.672Z,14283.2305
2023-04-18T21:21:41.259Z,14264.5381
2023-04-18T21:22:42.911Z,14250.0771
2023-04-18T21:23:44.542Z,14243.9229
2023-04-18T21:24:46.190Z,14240.5381
2023-04-18T21:25:47.903Z,14240.0771
2023-04-18T21:26:49.441Z,14241.4619
2023-04-18T21:27:51.149Z,14233.2305
2023-04-18T21:28:52.755Z,14233.8457
2023-04-18T21:29:54.440Z,14245.3076
2023-04-18T21:30:56.164Z,14244.3076
2023-04-18T21:31:57.785Z,14251.9229
2023-04-18T21:32:59.377Z,14288.8457
2023-04-18T21:34:01.068Z,14272.0771
2023-04-18T21:35:03.605Z,14276.7695
2023-04-18T21:36:04.353Z,14274.3848
2023-04-18T21:37:05.962Z,14276.9229
2023-04-18T21:38:07.538Z,14252.3848
2023-04-18T21:39:09.241Z,14253.2305
2023-04-18T21:40:10.952Z,14248.4619
2023-04-18T21:41:12.612Z,14254.7695
2023-04-18T21:42:14.110Z,14248.5381
2023-04-18T21:43:15.841Z,14240.5381
2023-04-18T21:44:17.477Z,14251.4619
2023-04-18T21:45:19.194Z,14256.3848
2023-04-18T21:46:24.220Z,14278.3848
2023-04-18T21:47:22.402Z,14288.3848
2023-04-18T21:48:24.013Z,14289.5381
2023-04-18T21:49:25.643Z,14280.2305
2023-04-18T21:50:27.306Z,14269.3848
2023-04-18T21:51:29.113Z,14256.4619
2023-04-18T21:52:30.597Z,14254.8457
2023-04-18T21:53:32.259Z,14251.7695
2023-04-18T21:54:33.881Z,14251.7695
2023-04-18T21:55:35.561Z,14251.8457
2023-04-18T21:56:37.224Z,14247.5381
2023-04-18T21:57:38.826Z,14256.3076
2023-04-18T21:58:40.453Z,14264.0771
2023-04-18T21:59:42.209Z,14281.3076
2023-04-18T22:00:43.846Z,14298.1543
2023-04-18T22:01:45.449Z,14288.8457
2023-04-18T22:02:47.313Z,14276.7695
2023-04-18T22:03:48.888Z,14271.4619
2023-04-18T22:04:50.332Z,14257.3848
2023-04-18T22:05:52.548Z,14248.4619
2023-04-18T22:06:53.682Z,14253.5381
2023-04-18T22:07:58.458Z,14253.5381
2023-04-18T22:08:56.928Z,14255.1543
2023-04-18T22:09:58.606Z,14252.3076
2023-04-18T22:11:01.142Z,14273.3848
2023-04-18T22:12:01.958Z,14286.6152
2023-04-18T22:13:03.601Z,14290.0771
2023-04-18T22:14:05.216Z,14286.8457
2023-04-18T22:15:06.817Z,14290.0771